Time;durP1;ratioP1;P1;durP2;ratioP2;P2;SDS_P1;SDS_P2;PMS_P1;PMS_P2;Temp;Humidity;BMP_temperature;BMP_pressure;BME280_temperature;BME280_humidity;BME280_pressure;Samples;Min_cycle;Max_cycle;Signal;HPM_P1;HPM_P2
2023/05/29 00:00:18;;;;;;;9.50;8.60;;;18.60;59.40;;;;;;5049375;28;20187;-86
2023/05/29 00:02:44;;;;;;;8.65;7.85;;;18.50;59.80;;;;;;5025741;28;20228;-87
2023/05/29 00:05:14;;;;;;;8.90;8.15;;;18.60;59.80;;;;;;5051295;28;20362;-87
2023/05/29 00:07:41;;;;;;;10.35;9.35;;;18.50;60.00;;;;;;5036119;28;20233;-85
2023/05/29 00:10:07;;;;;;;8.77;7.90;;;18.40;60.60;;;;;;5020542;28;20249;-85
2023/05/29 00:12:33;;;;;;;8.93;8.13;;;18.20;61.30;;;;;;5020159;28;20197;-86
2023/05/29 00:15:00;;;;;;;9.07;8.30;;;18.00;62.10;;;;;;5021761;28;20181;-88
2023/05/29 00:17:26;;;;;;;9.05;8.30;;;17.90;62.60;;;;;;5031598;28;20241;-88
2023/05/29 00:19:51;;;;;;;9.15;8.35;;;17.80;63.10;;;;;;5014961;28;20192;-86
2023/05/29 00:22:17;;;;;;;9.88;8.90;;;17.70;63.80;;;;;;5014116;28;20211;-86
2023/05/29 00:24:43;;;;;;;11.38;9.45;;;17.60;64.90;;;;;;5015426;28;20341;-86
2023/05/29 00:27:09;;;;;;;9.50;8.60;;;17.50;64.90;;;;;;5018627;28;20182;-87
2023/05/29 00:29:37;;;;;;;9.20;8.40;;;17.40;65.00;;;;;;5020672;28;20619;-85
2023/05/29 00:32:04;;;;;;;8.53;7.77;;;17.40;65.00;;;;;;5020654;28;20183;-87
2023/05/29 00:34:29;;;;;;;9.60;8.70;;;17.30;65.30;;;;;;5032340;28;20456;-86
2023/05/29 00:36:55;;;;;;;9.90;8.93;;;17.30;65.80;;;;;;5041125;28;20263;-86
2023/05/29 00:39:21;;;;;;;8.97;8.17;;;17.30;65.70;;;;;;5041249;28;20283;-87
2023/05/29 00:41:50;;;;;;;9.53;8.30;;;17.30;65.50;;;;;;5022164;28;20215;-86
2023/05/29 00:44:20;;;;;;;12.27;8.40;;;17.20;66.20;;;;;;5015474;28;20219;-87
2023/05/29 00:46:47;;;;;;;9.20;8.23;;;17.00;66.70;;;;;;5003282;28;20211;-87
2023/05/29 00:49:14;;;;;;;8.73;7.93;;;17.00;67.40;;;;;;5003670;28;20230;-85
2023/05/29 00:51:41;;;;;;;9.23;8.33;;;17.00;67.20;;;;;;5005235;28;20231;-86
2023/05/29 00:54:09;;;;;;;9.20;8.33;;;17.10;66.30;;;;;;5038297;28;20207;-87
2023/05/29 00:56:35;;;;;;;13.47;8.90;;;17.10;66.30;;;;;;5022752;28;20206;-86
2023/05/29 00:59:01;;;;;;;8.90;8.10;;;16.90;67.30;;;;;;5018326;28;20213;-86
2023/05/29 01:01:28;;;;;;;9.10;8.13;;;16.80;67.60;;;;;;5017034;28;20229;-86
2023/05/29 01:03:57;;;;;;;8.63;7.80;;;16.70;68.30;;;;;;5015607;28;20741;-87
2023/05/29 01:06:23;;;;;;;9.30;8.47;;;16.60;68.60;;;;;;5017574;28;20191;-86
2023/05/29 01:08:48;;;;;;;9.10;8.30;;;16.30;69.60;;;;;;5018454;28;20174;-86
2023/05/29 01:11:36;;;;;;;8.47;7.63;;;16.20;69.60;;;;;;5017651;28;20208;-87
2023/05/29 01:14:09;;;;;;;8.17;7.37;;;16.20;67.20;;;;;;5018810;28;20257;-85
2023/05/29 01:17:14;;;;;;;7.53;6.83;;;16.30;66.40;;;;;;5018324;28;20223;-86
2023/05/29 01:19:58;;;;;;;7.43;6.73;;;16.50;64.20;;;;;;5006057;28;20195;-87
2023/05/29 01:22:50;;;;;;;7.33;6.63;;;16.70;62.50;;;;;;5012359;28;20205;-86
2023/05/29 01:25:45;;;;;;;8.03;7.23;;;17.00;60.30;;;;;;5039872;28;20597;-85
2023/05/29 01:28:12;;;;;;;8.80;6.63;;;17.20;60.30;;;;;;4948018;28;20199;-86
2023/05/29 01:30:40;;;;;;;9.03;6.90;;;17.30;60.60;;;;;;5038263;28;20187;-87
2023/05/29 01:33:06;;;;;;;10.20;7.40;;;17.50;59.20;;;;;;5038947;28;20205;-86
2023/05/29 01:35:32;;;;;;;7.70;7.03;;;17.50;59.10;;;;;;5038985;28;20208;-85
2023/05/29 01:37:58;;;;;;;8.30;7.17;;;17.60;59.80;;;;;;5036641;28;20195;-87
2023/05/29 01:40:23;;;;;;;7.90;7.15;;;17.70;57.60;;;;;;5018635;28;20179;-86
2023/05/29 01:42:49;;;;;;;7.72;6.93;;;17.80;57.70;;;;;;5018833;28;20213;-87
2023/05/29 01:45:16;;;;;;;7.55;6.88;;;17.90;56.80;;;;;;5008167;28;20211;-86
2023/05/29 01:47:42;;;;;;;7.82;7.07;;;17.90;55.80;;;;;;5019018;28;20292;-85
2023/05/29 01:50:10;;;;;;;7.78;7.05;;;18.00;55.60;;;;;;5020179;28;20189;-86
2023/05/29 01:52:36;;;;;;;7.55;6.95;;;18.10;57.40;;;;;;5019198;28;20236;-85
2023/05/29 01:55:02;;;;;;;7.63;7.03;;;17.90;58.90;;;;;;5019503;28;20201;-86
2023/05/29 01:57:28;;;;;;;7.68;6.97;;;17.90;58.90;;;;;;5000820;28;20188;-87
2023/05/29 01:59:54;;;;;;;7.47;6.88;;;17.90;59.30;;;;;;5019681;28;20204;-86
2023/05/29 02:02:22;;;;;;;7.97;7.35;;;17.90;58.70;;;;;;5017419;28;20247;-86
2023/05/29 02:04:48;;;;;;;7.55;6.85;;;17.90;58.10;;;;;;5017306;28;20197;-88
2023/05/29 02:07:15;;;;;;;7.85;7.18;;;18.00;57.50;;;;;;5018174;28;20655;-86
2023/05/29 02:09:41;;;;;;;8.02;7.32;;;18.10;57.90;;;;;;5001218;28;20196;-88
2023/05/29 02:12:07;;;;;;;7.82;7.13;;;17.90;58.60;;;;;;5019226;28;20177;-88
2023/05/29 02:14:33;;;;;;;7.93;7.10;;;17.80;59.20;;;;;;5021120;28;20177;-87
2023/05/29 02:17:01;;;;;;;7.45;6.68;;;17.60;60.30;;;;;;5019312;28;20232;-87
2023/05/29 02:19:27;;;;;;;8.13;7.10;;;17.50;60.60;;;;;;5019349;28;20583;-87
2023/05/29 02:21:52;;;;;;;6.75;6.25;;;17.50;60.40;;;;;;5019216;28;20283;-89
2023/05/29 02:24:18;;;;;;;8.80;7.00;;;17.60;59.40;;;;;;5019304;28;20609;-86
2023/05/29 02:26:44;;;;;;;7.28;6.68;;;17.60;59.10;;;;;;5019278;28;20198;-87
2023/05/29 02:29:10;;;;;;;9.32;7.32;;;17.70;59.30;;;;;;5019202;28;20181;-85
2023/05/29 02:31:36;;;;;;;7.60;6.97;;;17.70;59.70;;;;;;5019858;28;20195;-88
2023/05/29 02:34:01;;;;;;;8.07;7.28;;;17.50;60.00;;;;;;5021370;28;20188;-85
2023/05/29 02:36:27;;;;;;;7.68;6.20;;;17.40;60.60;;;;;;5021549;28;20635;-86
2023/05/29 02:38:53;;;;;;;7.78;6.95;;;17.30;61.00;;;;;;5021297;28;20210;-86
2023/05/29 02:41:19;;;;;;;7.25;6.65;;;17.20;59.80;;;;;;5020225;28;20200;-89
2023/05/29 02:43:44;;;;;;;6.75;6.15;;;17.20;59.80;;;;;;5019536;28;20207;-86
2023/05/29 02:46:10;;;;;;;7.60;6.90;;;17.20;58.90;;;;;;5001666;28;20278;-88
2023/05/29 02:48:35;;;;;;;8.83;6.60;;;17.20;59.00;;;;;;5002476;28;20203;-87
2023/05/29 02:51:01;;;;;;;9.07;6.70;;;17.20;58.80;;;;;;5003025;28;20198;-86
2023/05/29 02:53:27;;;;;;;6.70;6.00;;;17.20;59.30;;;;;;5021624;28;20206;-87
2023/05/29 02:55:52;;;;;;;6.80;5.80;;;17.10;58.30;;;;;;5021949;28;20408;-87
2023/05/29 02:58:18;;;;;;;7.68;6.10;;;17.20;58.90;;;;;;5017592;28;20185;-85
2023/05/29 03:00:44;;;;;;;7.13;6.10;;;17.30;57.90;;;;;;5020582;28;20192;-87
2023/05/29 03:03:09;;;;;;;6.97;6.23;;;17.30;56.20;;;;;;5021095;28;20231;-88
2023/05/29 03:05:35;;;;;;;7.10;5.73;;;17.30;56.50;;;;;;5019258;28;20203;-86
2023/05/29 03:08:00;;;;;;;7.28;6.43;;;17.30;56.70;;;;;;5020015;28;20171;-86
2023/05/29 03:10:26;;;;;;;6.97;6.37;;;17.40;56.20;;;;;;5018565;28;20634;-85
2023/05/29 03:12:51;;;;;;;7.35;6.50;;;17.40;56.00;;;;;;5018513;28;20207;-88
2023/05/29 03:15:19;;;;;;;6.97;6.32;;;17.40;55.80;;;;;;5017471;28;20232;-88
2023/05/29 03:17:46;;;;;;;7.13;6.38;;;17.50;56.70;;;;;;5017921;28;20197;-87
2023/05/29 03:20:13;;;;;;;7.03;6.43;;;17.40;57.70;;;;;;5019232;28;20649;-88
2023/05/29 03:22:38;;;;;;;8.43;6.25;;;17.40;58.10;;;;;;5019808;28;20764;-86
2023/05/29 03:25:04;;;;;;;7.68;6.97;;;17.40;57.20;;;;;;5020093;28;20233;-86
2023/05/29 03:27:30;;;;;;;7.90;7.07;;;17.30;58.70;;;;;;5019205;28;20180;-88
2023/05/29 03:29:57;;;;;;;6.97;6.38;;;17.40;57.70;;;;;;5033080;28;20192;-86
2023/05/29 03:32:23;;;;;;;6.88;6.22;;;17.30;57.50;;;;;;5037622;28;20190;-86
2023/05/29 03:34:49;;;;;;;6.63;5.93;;;17.40;56.90;;;;;;5037959;28;20241;-87
2023/05/29 03:37:14;;;;;;;7.05;6.45;;;17.40;56.60;;;;;;5037644;28;20503;-86
2023/05/29 03:39:40;;;;;;;6.43;5.93;;;17.50;57.30;;;;;;5037939;28;20180;-86
2023/05/29 03:42:06;;;;;;;6.97;6.35;;;17.40;57.80;;;;;;5037697;28;20209;-86
2023/05/29 03:44:31;;;;;;;7.00;6.30;;;17.30;57.90;;;;;;5032165;28;20192;-86
2023/05/29 03:46:57;;;;;;;6.15;5.65;;;17.20;58.40;;;;;;5027326;28;20231;-85
2023/05/29 03:49:22;;;;;;;6.72;5.80;;;17.10;57.60;;;;;;5018442;28;20188;-85
2023/05/29 03:51:50;;;;;;;6.75;6.15;;;17.10;57.60;;;;;;5017730;28;20174;-87
2023/05/29 03:54:15;;;;;;;6.38;5.78;;;17.10;58.30;;;;;;5015582;28;20268;-83
2023/05/29 03:56:41;;;;;;;9.90;6.32;;;17.00;59.10;;;;;;5018005;28;20261;-87
2023/05/29 03:59:07;;;;;;;7.38;6.13;;;17.10;59.20;;;;;;5017678;28;20367;-86
2023/05/29 04:01:33;;;;;;;8.50;6.22;;;17.00;58.80;;;;;;5028951;28;20209;-86
2023/05/29 04:03:58;;;;;;;6.20;5.60;;;17.10;58.70;;;;;;5024166;28;20179;-87
2023/05/29 04:06:24;;;;;;;7.90;5.87;;;17.10;59.10;;;;;;5019545;28;20256;-86
2023/05/29 04:08:50;;;;;;;6.53;5.93;;;17.10;58.90;;;;;;5020723;28;20215;-87
2023/05/29 04:11:16;;;;;;;6.78;5.90;;;17.10;59.10;;;;;;5020103;28;20226;-88
2023/05/29 04:13:41;;;;;;;6.40;5.90;;;17.10;58.30;;;;;;5002182;28;20348;-87
2023/05/29 04:16:07;;;;;;;6.55;5.90;;;17.10;59.50;;;;;;5020085;28;20733;-88
2023/05/29 04:18:33;;;;;;;6.27;5.67;;;17.10;59.40;;;;;;5021747;28;20219;-85
2023/05/29 04:20:59;;;;;;;6.50;5.90;;;16.90;60.60;;;;;;5021193;28;20689;-86
2023/05/29 04:23:25;;;;;;;6.70;6.00;;;16.70;61.50;;;;;;5020677;28;20386;-86
2023/05/29 04:25:50;;;;;;;8.50;6.20;;;16.60;62.30;;;;;;5021632;28;20208;-86
2023/05/29 04:28:17;;;;;;;6.40;5.70;;;16.60;62.50;;;;;;5022385;28;20178;-87
2023/05/29 04:30:42;;;;;;;6.03;5.50;;;16.70;61.90;;;;;;5022086;28;20200;-86
2023/05/29 04:33:12;;;;;;;8.65;5.55;;;16.80;61.90;;;;;;5022661;28;20190;-86
2023/05/29 04:35:38;;;;;;;8.55;6.90;;;16.80;61.50;;;;;;5022313;28;20239;-86
2023/05/29 04:38:04;;;;;;;7.33;5.80;;;16.90;61.90;;;;;;5021598;28;20182;-86
2023/05/29 04:40:31;;;;;;;6.93;6.32;;;16.90;62.40;;;;;;5031974;28;20251;-86
2023/05/29 04:43:00;;;;;;;6.85;6.10;;;17.00;61.70;;;;;;5029307;28;20199;-85
2023/05/29 04:45:26;;;;;;;7.03;6.40;;;17.00;61.50;;;;;;5006597;28;20291;-86
2023/05/29 04:47:53;;;;;;;7.13;6.32;;;17.00;61.60;;;;;;5002174;28;20726;-87
2023/05/29 04:50:19;;;;;;;6.67;6.00;;;17.00;61.20;;;;;;5031646;28;20266;-86
2023/05/29 04:52:45;;;;;;;6.33;5.73;;;17.10;61.50;;;;;;5031548;28;20291;-86
2023/05/29 04:55:11;;;;;;;7.90;6.57;;;17.00;61.30;;;;;;5034593;28;20241;-85
2023/05/29 04:57:37;;;;;;;9.23;6.57;;;17.00;62.70;;;;;;5021922;28;20200;-86
2023/05/29 05:00:25;;;;;;;6.67;5.77;;;16.90;62.60;;;;;;5020171;28;20188;-85
2023/05/29 05:02:50;;;;;;;6.50;5.90;;;16.90;63.20;;;;;;5019237;28;20234;-86
2023/05/29 05:05:16;;;;;;;7.30;6.00;;;16.80;63.40;;;;;;5021221;28;20205;-86
2023/05/29 05:07:42;;;;;;;7.60;5.87;;;16.80;64.40;;;;;;5022155;28;20180;-87
2023/05/29 05:10:08;;;;;;;6.70;6.10;;;16.90;64.10;;;;;;5023614;28;20690;-89
2023/05/29 05:12:34;;;;;;;6.87;6.13;;;16.90;65.10;;;;;;5021249;28;20246;-87
2023/05/29 05:14:59;;;;;;;6.10;5.60;;;17.00;63.70;;;;;;5022787;28;20242;-87
2023/05/29 05:17:25;;;;;;;7.80;5.70;;;17.00;63.70;;;;;;5021678;28;20173;-87
2023/05/29 05:19:53;;;;;;;6.37;5.77;;;17.00;62.80;;;;;;5021881;28;20208;-86
2023/05/29 05:22:19;;;;;;;6.47;5.88;;;17.10;63.10;;;;;;5022366;28;20228;-86
2023/05/29 05:24:44;;;;;;;8.90;6.00;;;17.20;61.90;;;;;;5033357;28;20646;-87
2023/05/29 05:27:10;;;;;;;8.35;6.78;;;17.20;61.90;;;;;;5042082;28;20267;-88
2023/05/29 05:29:36;;;;;;;9.20;6.50;;;17.20;60.70;;;;;;5042606;28;20180;-86
2023/05/29 05:32:02;;;;;;;8.53;6.70;;;17.20;60.90;;;;;;5042033;28;20652;-88
2023/05/29 05:34:27;;;;;;;8.47;6.80;;;17.20;59.80;;;;;;5043053;28;20212;-86
2023/05/29 05:36:53;;;;;;;10.40;5.97;;;17.00;59.90;;;;;;5040308;28;20213;-86
2023/05/29 05:39:19;;;;;;;9.07;6.07;;;16.90;61.30;;;;;;5043366;28;20177;-86
2023/05/29 05:41:44;;;;;;;8.90;6.23;;;16.90;60.70;;;;;;5042670;28;20200;-86
2023/05/29 05:44:10;;;;;;;9.10;5.67;;;16.90;61.00;;;;;;5037841;28;20180;-86
2023/05/29 05:46:36;;;;;;;5.80;5.30;;;17.00;60.30;;;;;;5022219;28;20232;-85
2023/05/29 05:49:01;;;;;;;6.07;5.40;;;16.90;60.30;;;;;;5023833;28;20322;-87
2023/05/29 05:51:27;;;;;;;6.33;5.80;;;16.90;60.30;;;;;;5022322;28;20189;-86
2023/05/29 05:53:53;;;;;;;7.77;6.20;;;16.90;59.70;;;;;;5022263;28;20200;-87
2023/05/29 05:56:19;;;;;;;8.43;5.70;;;17.00;59.60;;;;;;5021081;28;20207;-87
2023/05/29 05:58:45;;;;;;;6.23;5.53;;;17.00;59.50;;;;;;5019820;28;20538;-86
2023/05/29 06:01:10;;;;;;;6.10;5.50;;;17.10;59.80;;;;;;5019058;28;20208;-86
2023/05/29 06:03:37;;;;;;;6.57;5.97;;;17.20;59.80;;;;;;5019375;28;20620;-89
2023/05/29 06:06:03;;;;;;;6.30;5.70;;;17.20;59.10;;;;;;5033641;28;20698;-87
2023/05/29 06:08:30;;;;;;;6.90;6.17;;;17.40;59.40;;;;;;5020860;28;20228;-89
2023/05/29 06:10:56;;;;;;;7.37;5.90;;;17.50;58.30;;;;;;5018284;28;20169;-86
2023/05/29 06:13:22;;;;;;;7.03;5.50;;;17.60;58.50;;;;;;5003032;28;20675;-89
2023/05/29 06:15:47;;;;;;;6.83;5.23;;;17.80;58.20;;;;;;5018320;28;20752;-86
2023/05/29 06:18:13;;;;;;;6.57;5.53;;;17.80;57.10;;;;;;5000724;28;20287;-87
2023/05/29 06:20:38;;;;;;;8.27;5.63;;;17.90;56.90;;;;;;5021413;28;20188;-86
2023/05/29 06:23:04;;;;;;;6.93;6.13;;;18.00;55.80;;;;;;5033646;28;20199;-88
2023/05/29 06:25:33;;;;;;;6.50;5.90;;;18.10;54.40;;;;;;5026264;28;20232;-86
2023/05/29 06:28:02;;;;;;;6.95;5.40;;;18.10;53.70;;;;;;5022805;28;20217;-86
2023/05/29 06:30:28;;;;;;;5.87;5.37;;;18.10;53.80;;;;;;5027391;28;20191;-86
2023/05/29 06:32:54;;;;;;;8.07;6.10;;;18.20;53.10;;;;;;5023108;28;20228;-86
2023/05/29 06:35:20;;;;;;;6.05;5.40;;;18.30;53.30;;;;;;5022211;28;20223;-84
2023/05/29 06:37:46;;;;;;;6.13;5.40;;;18.40;52.80;;;;;;5018936;28;20189;-88
2023/05/29 06:40:13;;;;;;;5.93;5.40;;;18.40;52.70;;;;;;5018154;28;20662;-86
2023/05/29 06:42:38;;;;;;;6.32;5.72;;;18.40;52.80;;;;;;5014901;28;20270;-88
2023/05/29 06:45:04;;;;;;;7.53;5.55;;;18.50;52.60;;;;;;5005003;28;20208;-88
2023/05/29 06:47:31;;;;;;;7.68;5.90;;;18.50;52.70;;;;;;5031209;28;20198;-87
2023/05/29 06:49:57;;;;;;;7.05;5.70;;;18.70;52.80;;;;;;5003951;28;20177;-89
2023/05/29 06:52:22;;;;;;;6.07;5.47;;;18.70;51.30;;;;;;5019939;28;20203;-87
2023/05/29 06:54:48;;;;;;;6.15;5.65;;;18.70;51.50;;;;;;5020700;28;20185;-88
2023/05/29 06:57:13;;;;;;;5.88;5.38;;;18.80;51.00;;;;;;5020804;28;20174;-87
2023/05/29 06:59:39;;;;;;;6.30;5.80;;;19.00;50.70;;;;;;5021596;28;20235;-87
2023/05/29 07:02:05;;;;;;;5.60;5.10;;;19.10;49.30;;;;;;5020081;28;20205;-89
2023/05/29 07:04:31;;;;;;;6.53;5.93;;;19.20;48.10;;;;;;5022821;28;20185;-88
2023/05/29 07:06:57;;;;;;;6.22;5.55;;;19.30;46.90;;;;;;5023263;28;20216;-90
2023/05/29 07:09:27;;;;;;;6.57;5.97;;;19.40;45.70;;;;;;5020071;28;20257;-87
2023/05/29 07:11:53;;;;;;;5.72;5.15;;;19.60;45.90;;;;;;5027425;28;20170;-87
2023/05/29 07:14:18;;;;;;;8.15;5.82;;;19.60;46.00;;;;;;5020599;28;20646;-87
2023/05/29 07:16:44;;;;;;;6.10;5.57;;;19.80;45.70;;;;;;5021219;28;20217;-89
2023/05/29 07:19:11;;;;;;;6.68;6.07;;;19.90;45.40;;;;;;5030961;28;20220;-88
2023/05/29 07:21:36;;;;;;;6.47;5.97;;;19.90;45.00;;;;;;5021005;28;20198;-87
2023/05/29 07:24:02;;;;;;;6.07;5.60;;;19.90;45.40;;;;;;5001681;28;20729;-88
2023/05/29 07:26:28;;;;;;;9.05;5.80;;;20.00;45.30;;;;;;5019271;28;20208;-87
2023/05/29 07:28:53;;;;;;;6.72;6.10;;;20.00;45.40;;;;;;5018154;28;20195;-89
2023/05/29 07:31:19;;;;;;;6.70;5.55;;;20.10;45.00;;;;;;5021766;28;20181;-88
2023/05/29 07:33:45;;;;;;;6.80;6.10;;;20.20;44.80;;;;;;5003065;28;20186;-88
2023/05/29 07:36:10;;;;;;;6.20;5.60;;;20.20;45.80;;;;;;5019417;28;20205;-87
2023/05/29 07:38:37;;;;;;;6.70;6.10;;;20.00;45.80;;;;;;5021761;28;20190;-86
2023/05/29 07:41:03;;;;;;;6.45;5.90;;;20.00;45.80;;;;;;5019201;28;20256;-88
2023/05/29 07:43:28;;;;;;;6.88;6.18;;;20.20;45.90;;;;;;5018994;28;20231;-87
2023/05/29 07:45:54;;;;;;;8.25;5.97;;;20.20;45.90;;;;;;5017243;28;20197;-87
2023/05/29 07:48:20;;;;;;;6.18;5.60;;;20.00;45.90;;;;;;5019144;28;20178;-88
2023/05/29 07:50:45;;;;;;;6.05;5.50;;;20.00;46.20;;;;;;5016705;28;20187;-88
2023/05/29 07:53:12;;;;;;;7.20;6.57;;;20.00;46.70;;;;;;5018370;28;20197;-88
2023/05/29 07:55:37;;;;;;;7.22;6.35;;;20.10;46.70;;;;;;5018406;28;20285;-87
2023/05/29 07:58:03;;;;;;;7.63;5.47;;;20.20;47.10;;;;;;5019574;28;20173;-89
2023/05/29 08:00:29;;;;;;;6.43;5.93;;;20.30;46.60;;;;;;5000497;28;20628;-89
2023/05/29 08:02:54;;;;;;;6.45;5.85;;;20.30;46.60;;;;;;5016140;28;20212;-88
2023/05/29 08:05:20;;;;;;;6.45;5.85;;;20.50;46.00;;;;;;5018734;28;20201;-87
2023/05/29 08:07:48;;;;;;;6.93;6.05;;;20.80;46.10;;;;;;5019700;28;20268;-89
2023/05/29 08:10:14;;;;;;;5.90;5.40;;;20.90;44.90;;;;;;5020598;28;20610;-88
2023/05/29 08:12:39;;;;;;;7.20;5.80;;;20.80;45.30;;;;;;5021136;28;20178;-88
2023/05/29 08:15:06;;;;;;;7.90;5.50;;;20.70;45.80;;;;;;5020147;28;20776;-87
2023/05/29 08:17:31;;;;;;;6.43;5.93;;;20.80;46.10;;;;;;5019572;28;20682;-87
2023/05/29 08:19:57;;;;;;;6.35;5.85;;;21.10;45.40;;;;;;5007554;28;20194;-91
2023/05/29 08:22:28;;;;;;;6.72;6.22;;;21.30;45.70;;;;;;5001583;28;20218;-89
2023/05/29 08:24:54;;;;;;;6.88;6.28;;;21.40;45.20;;;;;;5012224;28;20175;-87
2023/05/29 08:27:19;;;;;;;6.68;6.03;;;21.30;44.30;;;;;;5018909;28;20182;-88
2023/05/29 08:29:45;;;;;;;7.10;6.15;;;21.30;44.00;;;;;;5018626;28;20209;-87
2023/05/29 08:32:11;;;;;;;7.72;6.72;;;21.20;43.90;;;;;;5002411;28;20177;-89
2023/05/29 08:34:36;;;;;;;7.22;6.50;;;21.30;43.90;;;;;;5020396;28;20548;-86
2023/05/29 08:37:02;;;;;;;6.45;5.95;;;21.40;44.50;;;;;;5020192;28;20252;-87
2023/05/29 08:39:28;;;;;;;7.18;6.43;;;21.30;44.40;;;;;;5020547;28;20583;-88
2023/05/29 08:42:33;;;;;;;7.40;6.80;;;21.50;44.40;;;;;;5000095;28;20231;-86
2023/05/29 08:45:03;;;;;;;8.60;6.80;;;21.90;43.70;;;;;;5006617;28;20227;-87
2023/05/29 08:47:34;;;;;;;7.53;6.75;;;22.00;43.60;;;;;;5036501;28;20184;-87
2023/05/29 08:50:02;;;;;;;7.10;6.50;;;22.40;42.40;;;;;;5039627;28;20158;-88
2023/05/29 08:52:35;;;;;;;7.68;7.07;;;22.40;42.60;;;;;;5035605;28;20197;-88
2023/05/29 08:55:01;;;;;;;8.10;7.43;;;22.50;42.80;;;;;;5031190;28;20185;-88
2023/05/29 08:57:28;;;;;;;8.18;7.38;;;22.80;42.90;;;;;;5019636;28;20721;-87
2023/05/29 08:59:55;;;;;;;7.95;7.25;;;22.90;42.30;;;;;;5017763;28;20226;-88
2023/05/29 09:02:21;;;;;;;7.18;6.65;;;22.90;41.20;;;;;;5020370;28;20641;-86
2023/05/29 09:04:48;;;;;;;7.72;7.13;;;23.00;40.60;;;;;;5003774;28;20209;-89
2023/05/29 09:07:16;;;;;;;7.47;6.95;;;23.00;40.80;;;;;;5030118;28;20188;-87
2023/05/29 09:09:42;;;;;;;8.10;7.40;;;23.20;41.20;;;;;;5025710;28;20186;-87
2023/05/29 09:12:09;;;;;;;7.80;7.03;;;23.40;40.40;;;;;;5018975;28;20182;-87
2023/05/29 09:14:40;;;;;;;7.75;7.15;;;23.70;39.20;;;;;;5020200;28;20232;-87
2023/05/29 09:17:08;;;;;;;7.72;7.13;;;23.80;37.60;;;;;;5022647;28;20506;-87
2023/05/29 09:19:34;;;;;;;8.30;7.78;;;23.80;37.70;;;;;;5020782;28;20664;-86
2023/05/29 09:22:04;;;;;;;8.95;8.05;;;24.00;37.90;;;;;;5021410;28;20215;-86
2023/05/29 09:24:30;;;;;;;9.90;7.70;;;23.80;37.50;;;;;;5020210;28;20178;-86
2023/05/29 09:26:58;;;;;;;8.55;7.85;;;23.70;38.30;;;;;;5020010;28;20202;-86
2023/05/29 09:29:24;;;;;;;8.80;8.10;;;24.00;37.80;;;;;;5019614;28;20188;-88
2023/05/29 09:31:50;;;;;;;9.38;8.60;;;24.20;37.60;;;;;;5015261;28;20209;-88
2023/05/29 09:34:16;;;;;;;9.02;8.43;;;24.40;36.60;;;;;;5020173;28;20182;-88
2023/05/29 09:36:42;;;;;;;9.40;8.55;;;24.60;36.30;;;;;;5018786;28;20287;-87
2023/05/29 09:39:10;;;;;;;9.60;8.85;;;24.70;36.80;;;;;;5019721;28;20397;-86
2023/05/29 09:41:43;;;;;;;9.40;8.63;;;24.70;36.60;;;;;;5021910;28;20209;-87
2023/05/29 09:44:13;;;;;;;9.52;8.60;;;24.50;36.20;;;;;;5018907;28;20185;-87
2023/05/29 09:46:39;;;;;;;8.70;8.10;;;24.70;36.20;;;;;;5007985;28;20288;-88
2023/05/29 09:49:16;;;;;;;10.18;9.55;;;25.10;35.60;;;;;;5024306;28;20782;-89
2023/05/29 09:51:47;;;;;;;9.43;8.82;;;25.40;34.10;;;;;;5017019;28;20485;-90
2023/05/29 09:54:16;;;;;;;11.15;10.45;;;25.60;34.60;;;;;;5018655;28;20203;-87
2023/05/29 09:56:44;;;;;;;11.90;11.00;;;25.80;33.40;;;;;;5014911;28;20213;-88
2023/05/29 09:59:14;;;;;;;12.20;11.40;;;25.80;33.00;;;;;;5001168;28;20506;-87
2023/05/29 10:01:43;;;;;;;11.98;11.27;;;25.80;34.10;;;;;;5019555;28;20209;-87
2023/05/29 10:04:10;;;;;;;12.07;11.30;;;25.80;33.10;;;;;;5005457;28;20181;-88
2023/05/29 10:06:38;;;;;;;11.30;10.60;;;25.50;34.00;;;;;;5020360;28;20200;-87
2023/05/29 10:09:07;;;;;;;11.95;11.15;;;25.80;33.30;;;;;;5021955;28;20181;-88
2023/05/29 10:11:35;;;;;;;12.50;11.50;;;25.90;32.80;;;;;;5017723;28;20728;-85
2023/05/29 10:14:02;;;;;;;12.65;11.73;;;26.20;32.90;;;;;;5018405;28;20821;-87
2023/05/29 10:16:29;;;;;;;13.13;12.07;;;26.30;33.20;;;;;;5018387;28;20749;-86
2023/05/29 10:18:55;;;;;;;13.80;12.80;;;26.50;32.30;;;;;;5027457;28;20659;-86
2023/05/29 10:21:22;;;;;;;14.30;13.50;;;26.70;31.80;;;;;;5016594;28;20226;-88
2023/05/29 10:23:50;;;;;;;14.23;13.43;;;26.60;32.40;;;;;;5017099;28;20189;-87
2023/05/29 10:26:21;;;;;;;14.57;13.48;;;26.90;31.70;;;;;;5017774;28;20568;-87
2023/05/29 10:29:09;;;;;;;15.35;14.45;;;26.80;31.10;;;;;;5019183;28;20719;-86
2023/05/29 10:31:43;;;;;;;14.43;13.65;;;26.90;31.60;;;;;;5014684;28;20205;-86
2023/05/29 10:34:24;;;;;;;15.18;14.30;;;27.10;31.80;;;;;;5018998;28;20214;-87
2023/05/29 10:37:03;;;;;;;15.88;14.98;;;27.30;29.80;;;;;;5018689;28;20560;-90
2023/05/29 10:39:29;;;;;;;16.27;15.32;;;27.40;29.50;;;;;;5000067;28;20193;-87
2023/05/29 10:41:58;;;;;;;16.80;15.90;;;27.60;29.40;;;;;;5016218;28;20193;-88
2023/05/29 10:44:33;;;;;;;16.10;15.10;;;27.80;28.60;;;;;;5015736;28;20174;-87
2023/05/29 10:46:59;;;;;;;16.60;15.43;;;28.10;28.90;;;;;;5008926;28;20200;-87
2023/05/29 10:49:24;;;;;;;15.90;15.10;;;28.30;29.50;;;;;;5029575;28;20181;-86
2023/05/29 10:51:51;;;;;;;16.20;15.25;;;28.40;28.90;;;;;;5014146;28;20431;-85
2023/05/29 10:54:30;;;;;;;15.75;14.75;;;28.40;28.10;;;;;;5013810;28;20691;-88
2023/05/29 10:57:01;;;;;;;15.57;14.77;;;28.40;29.00;;;;;;4997863;28;20296;-86
2023/05/29 10:59:36;;;;;;;16.02;15.23;;;28.50;27.90;;;;;;5018476;28;20181;-87
2023/05/29 11:02:09;;;;;;;16.67;15.45;;;28.30;28.70;;;;;;5017133;28;20251;-88
2023/05/29 11:04:36;;;;;;;15.68;14.77;;;28.40;28.80;;;;;;5022257;28;20177;-87
2023/05/29 11:07:08;;;;;;;16.40;15.30;;;28.70;28.30;;;;;;5019368;28;20212;-87
2023/05/29 11:09:36;;;;;;;17.15;16.10;;;28.90;28.10;;;;;;5018787;28;20182;-88
2023/05/29 11:12:11;;;;;;;18.60;17.60;;;29.00;28.10;;;;;;5021163;28;20185;-87
2023/05/29 11:14:47;;;;;;;18.45;17.50;;;29.00;28.20;;;;;;5001297;28;20290;-87
2023/05/29 11:17:32;;;;;;;17.83;16.92;;;29.10;28.10;;;;;;5017751;28;20173;-87
2023/05/29 11:20:03;;;;;;;19.05;18.05;;;29.10;28.20;;;;;;5017842;28;20349;-87
2023/05/29 11:22:53;;;;;;;18.35;17.48;;;29.50;27.40;;;;;;5014866;28;20213;-87
2023/05/29 11:25:20;;;;;;;19.00;17.90;;;29.40;27.10;;;;;;5018686;28;20277;-87
2023/05/29 11:27:46;;;;;;;19.00;18.02;;;29.40;27.10;;;;;;5000213;28;20185;-86
2023/05/29 11:30:12;;;;;;;19.35;18.27;;;29.30;27.20;;;;;;5018139;28;20223;-86
2023/05/29 11:32:40;;;;;;;18.95;17.98;;;29.20;27.10;;;;;;5016602;28;20189;-86
2023/05/29 11:35:09;;;;;;;19.40;18.30;;;29.30;27.20;;;;;;5019119;28;20236;-86
2023/05/29 11:37:38;;;;;;;19.58;18.35;;;29.60;27.30;;;;;;5016686;28;20197;-87
2023/05/29 11:40:09;;;;;;;21.23;20.17;;;30.20;26.60;;;;;;5015332;28;20190;-86
2023/05/29 11:42:44;;;;;;;20.10;19.00;;;30.30;26.40;;;;;;4996639;28;20198;-84
2023/05/29 11:45:15;;;;;;;21.88;20.73;;;30.30;26.50;;;;;;5015507;28;20248;-87
2023/05/29 11:47:52;;;;;;;20.92;19.92;;;30.50;25.70;;;;;;5015213;28;20245;-86
2023/05/29 11:50:20;;;;;;;21.63;20.48;;;30.20;25.80;;;;;;5023285;28;20260;-87
2023/05/29 11:52:46;;;;;;;21.05;20.10;;;29.80;25.40;;;;;;5036036;28;20177;-87
2023/05/29 11:55:12;;;;;;;21.15;20.25;;;30.00;25.70;;;;;;5030529;28;20740;-88
2023/05/29 11:57:38;;;;;;;21.42;20.30;;;30.30;25.40;;;;;;5018480;28;20177;-86
2023/05/29 12:00:09;;;;;;;20.58;19.63;;;30.40;25.40;;;;;;5018047;28;20189;-88
2023/05/29 12:02:36;;;;;;;22.05;21.02;;;30.40;25.90;;;;;;4998808;28;20470;-87
2023/05/29 12:05:09;;;;;;;22.40;21.17;;;30.40;25.80;;;;;;5017959;28;20196;-87
2023/05/29 12:07:36;;;;;;;21.60;20.55;;;30.30;25.60;;;;;;5019256;28;20663;-86
2023/05/29 12:10:15;;;;;;;23.98;22.67;;;30.70;25.50;;;;;;5023580;28;20196;-87
2023/05/29 12:12:42;;;;;;;22.63;21.63;;;31.10;25.10;;;;;;5016045;28;20186;-87
2023/05/29 12:15:09;;;;;;;24.02;23.02;;;30.90;25.50;;;;;;5017243;28;20217;-87
2023/05/29 12:17:35;;;;;;;24.52;23.48;;;31.00;25.00;;;;;;5016452;28;20181;-87
2023/05/29 12:20:03;;;;;;;25.45;24.08;;;31.20;24.80;;;;;;5016159;28;20656;-87
2023/05/29 12:22:34;;;;;;;26.23;25.05;;;31.20;24.40;;;;;;5007892;28;20212;-86
2023/05/29 12:25:06;;;;;;;24.88;23.65;;;31.10;24.70;;;;;;5024189;28;20190;-85
2023/05/29 12:27:32;;;;;;;25.58;24.20;;;31.00;25.00;;;;;;5002738;28;20182;-87
2023/05/29 12:30:05;;;;;;;24.70;23.65;;;30.60;24.80;;;;;;5021029;28;20173;-87
2023/05/29 12:32:38;;;;;;;25.80;24.70;;;30.60;25.00;;;;;;5003133;28;20213;-86
2023/05/29 12:35:10;;;;;;;25.38;24.15;;;31.00;24.30;;;;;;5016801;28;20173;-87
2023/05/29 12:37:36;;;;;;;24.67;23.67;;;31.50;24.10;;;;;;5013099;28;20192;-86
2023/05/29 12:40:18;;;;;;;24.42;23.33;;;31.30;25.10;;;;;;5013322;28;20185;-86
2023/05/29 12:42:44;;;;;;;25.55;24.38;;;31.20;24.90;;;;;;5015574;28;20229;-87
2023/05/29 12:45:10;;;;;;;26.30;24.88;;;31.30;24.30;;;;;;5014054;28;20251;-86